Beaver Creek, Illinois
Current Conditions -  °F | °C
As of 6:15 AM on Friday 19 Dec 2014 (Local Time) from K3LF Reporting Station
Haze Haze  
Wind Chill: 24°   Ceiling: 600
Heat Index: 29°   Visibility: 5mi
Dew Point: 26°   Wind: 5mph
Humidity: 88%   Direction: 40°NE
Pressure: 30.28"   Gusts: NA
Location:  38.895°N, 89.397°W
Report Text: K3LF 191215Z AUTO 04004KT 5SM BR BKN006 OVC035 M02/M03 A3028 RMK AO2 T10161033
Loading
Personal Weather Stations






























Interactive Weather Map New forecast layout! Learn more

10-Day Weather Forecast

Advertisements
Track Severe Weather on mobile